createdAt,value
2023-05-06T00:01:36.371Z,5.50
2023-05-06T00:04:03.317Z,5.82
2023-05-06T00:06:30.272Z,5.75
2023-05-06T00:08:56.969Z,5.97
2023-05-06T00:11:23.698Z,6.13
2023-05-06T00:13:50.357Z,6.50
2023-05-06T00:16:17.071Z,6.43
2023-05-06T00:18:43.848Z,5.95
2023-05-06T00:21:11.217Z,5.78
2023-05-06T00:23:37.908Z,5.68
2023-05-06T00:26:04.865Z,6.35
2023-05-06T00:28:31.615Z,5.90
2023-05-06T00:30:58.280Z,6.20
2023-05-06T00:33:25.993Z,6.20
2023-05-06T00:35:52.912Z,5.90
2023-05-06T00:38:19.650Z,6.60
2023-05-06T00:40:46.388Z,6.25
2023-05-06T00:43:13.547Z,7.00
2023-05-06T00:45:40.396Z,7.32
2023-05-06T00:48:07.539Z,6.68
2023-05-06T00:50:35.293Z,7.30
2023-05-06T00:53:04.313Z,6.68
2023-05-06T00:55:32.050Z,6.75
2023-05-06T00:57:59.474Z,7.00
2023-05-06T01:00:26.730Z,7.05
2023-05-06T01:02:53.577Z,7.72
2023-05-06T01:05:23.759Z,7.90
2023-05-06T01:08:02.453Z,7.93
2023-05-06T01:10:57.566Z,6.38
2023-05-06T01:13:46.939Z,6.65
2023-05-06T01:16:17.777Z,6.20
2023-05-06T01:18:45.354Z,7.03
2023-05-06T01:21:13.382Z,6.80
2023-05-06T01:23:57.937Z,5.32
2023-05-06T01:26:25.375Z,5.95
2023-05-06T01:28:52.404Z,5.40
2023-05-06T01:31:42.820Z,4.35
2023-05-06T01:34:27.128Z,5.53
2023-05-06T01:37:21.921Z,6.05
2023-05-06T01:39:50.027Z,5.30
2023-05-06T01:42:17.768Z,5.63
2023-05-06T01:44:45.123Z,5.32
2023-05-06T01:47:13.453Z,7.60
2023-05-06T01:49:40.567Z,6.97
2023-05-06T01:52:07.437Z,6.25
2023-05-06T01:54:34.160Z,6.00
2023-05-06T01:57:02.097Z,5.47
2023-05-06T01:59:29.699Z,6.53
2023-05-06T02:01:56.709Z,6.22
2023-05-06T02:04:23.467Z,8.40
2023-05-06T02:06:50.735Z,8.02
2023-05-06T02:09:18.734Z,7.10
2023-05-06T02:11:51.871Z,8.07
2023-05-06T02:14:18.571Z,8.10
2023-05-06T02:16:46.589Z,9.93
2023-05-06T02:19:14.094Z,9.73
2023-05-06T02:21:40.805Z,10.20
2023-05-06T02:24:08.365Z,8.73
2023-05-06T02:26:35.083Z,9.07
2023-05-06T02:29:03.190Z,9.07
2023-05-06T02:31:31.138Z,8.65
2023-05-06T02:33:57.840Z,7.45
2023-05-06T02:36:24.560Z,7.28
2023-05-06T02:38:51.231Z,7.40
2023-05-06T02:41:18.016Z,6.65
2023-05-06T02:43:45.698Z,5.97
2023-05-06T02:46:12.424Z,5.10
2023-05-06T02:48:39.130Z,5.35
2023-05-06T02:51:06.242Z,5.63
2023-05-06T02:53:32.986Z,5.70
2023-05-06T02:55:59.701Z,5.65
2023-05-06T02:58:26.474Z,5.15
2023-05-06T03:00:53.126Z,5.00
2023-05-06T03:03:22.077Z,4.57
2023-05-06T03:05:48.818Z,4.68
2023-05-06T03:08:15.515Z,4.30
2023-05-06T03:10:42.255Z,5.55
2023-05-06T03:13:09.079Z,5.45
2023-05-06T03:15:36.072Z,5.70
2023-05-06T03:18:03.678Z,5.68
2023-05-06T03:20:30.605Z,5.60
2023-05-06T03:22:59.457Z,5.47
2023-05-06T03:25:26.499Z,5.40
2023-05-06T03:27:55.733Z,6.10
2023-05-06T03:30:23.492Z,6.25
2023-05-06T03:32:56.546Z,5.25
2023-05-06T03:35:29.380Z,5.65
2023-05-06T03:37:58.513Z,5.13
2023-05-06T03:40:29.782Z,4.93
2023-05-06T03:42:57.251Z,5.22
2023-05-06T03:45:24.229Z,5.85
2023-05-06T03:47:52.316Z,5.50
2023-05-06T03:50:20.953Z,6.15
2023-05-06T03:52:48.750Z,6.45
2023-05-06T03:55:15.639Z,6.78
2023-05-06T03:57:42.457Z,6.85
2023-05-06T04:00:10.439Z,7.13
2023-05-06T04:02:43.447Z,6.55
2023-05-06T04:05:16.237Z,6.22
2023-05-06T04:07:43.817Z,5.95
2023-05-06T04:10:10.671Z,6.47
2023-05-06T04:12:38.069Z,6.50
2023-05-06T04:15:07.466Z,6.55
2023-05-06T04:17:34.866Z,6.25
2023-05-06T04:20:08.780Z,7.10
2023-05-06T04:22:35.659Z,7.55
2023-05-06T04:25:02.642Z,7.68
2023-05-06T04:27:32.098Z,6.88
2023-05-06T04:30:00.177Z,6.57
2023-05-06T04:32:28.098Z,6.60
2023-05-06T04:34:55.816Z,6.07
2023-05-06T04:37:23.415Z,6.57
2023-05-06T04:40:02.358Z,5.72
2023-05-06T04:42:30.782Z,7.00
2023-05-06T04:45:08.044Z,7.15
2023-05-06T04:47:36.538Z,6.97
2023-05-06T04:50:04.802Z,6.93
2023-05-06T04:52:32.051Z,6.90
2023-05-06T04:54:59.023Z,6.90
2023-05-06T04:57:25.805Z,7.50
2023-05-06T04:59:54.632Z,8.18
2023-05-06T05:02:21.892Z,8.60
2023-05-06T05:04:49.872Z,8.88
2023-05-06T05:07:16.782Z,9.45
2023-05-06T05:09:43.515Z,10.55
2023-05-06T05:12:10.294Z,9.30
2023-05-06T05:14:42.480Z,8.05
2023-05-06T05:17:10.905Z,7.90
2023-05-06T05:19:38.666Z,7.13
2023-05-06T05:22:06.005Z,7.72
2023-05-06T05:24:33.473Z,7.15
2023-05-06T05:27:00.239Z,6.97
2023-05-06T05:29:27.320Z,6.80
2023-05-06T05:31:54.645Z,8.00
2023-05-06T05:34:21.452Z,9.00
2023-05-06T05:36:49.292Z,11.40
2023-05-06T05:39:16.067Z,12.25
2023-05-06T05:41:45.765Z,12.20
2023-05-06T05:44:13.023Z,11.43
2023-05-06T05:46:40.776Z,11.75
2023-05-06T05:49:09.549Z,13.25
2023-05-06T05:51:36.385Z,12.52
2023-05-06T05:54:05.464Z,12.63
2023-05-06T05:56:33.387Z,12.05
2023-05-06T05:59:00.945Z,12.68
2023-05-06T06:01:28.404Z,15.05
2023-05-06T06:03:56.502Z,16.38
2023-05-06T06:06:24.616Z,17.17
2023-05-06T06:08:52.627Z,20.70
2023-05-06T06:11:21.553Z,19.92
2023-05-06T06:13:48.333Z,19.63
2023-05-06T06:16:15.320Z,20.88
2023-05-06T06:18:42.083Z,20.77
2023-05-06T06:21:08.806Z,20.73
2023-05-06T06:23:35.759Z,22.27
2023-05-06T06:26:06.409Z,23.30
2023-05-06T06:28:33.674Z,21.60
2023-05-06T06:31:00.434Z,23.35
2023-05-06T06:33:27.270Z,22.40
2023-05-06T06:35:54.732Z,25.60
2023-05-06T06:38:21.388Z,25.05
2023-05-06T06:40:48.055Z,25.00
2023-05-06T06:43:14.762Z,23.73
2023-05-06T06:46:01.393Z,27.23
2023-05-06T06:48:28.128Z,26.67
2023-05-06T06:50:55.376Z,26.80
2023-05-06T06:53:22.068Z,27.13
2023-05-06T06:55:48.841Z,27.73
2023-05-06T06:58:15.531Z,27.63
2023-05-06T07:00:43.071Z,29.88
2023-05-06T07:03:09.856Z,30.33
2023-05-06T07:05:36.650Z,33.50
2023-05-06T07:08:03.511Z,32.10
2023-05-06T07:10:30.296Z,32.63
2023-05-06T07:12:58.146Z,34.60
2023-05-06T07:15:25.148Z,33.50
2023-05-06T07:17:51.873Z,34.03
2023-05-06T07:20:18.637Z,33.72
2023-05-06T07:22:45.733Z,33.25
2023-05-06T07:25:12.797Z,30.33
2023-05-06T07:27:39.993Z,30.77
2023-05-06T07:30:07.940Z,31.63
2023-05-06T07:32:34.646Z,31.00
2023-05-06T07:35:01.652Z,32.10
2023-05-06T07:37:28.289Z,35.63
2023-05-06T07:39:56.412Z,35.22
2023-05-06T07:42:23.052Z,32.88
2023-05-06T07:44:49.667Z,34.20
2023-05-06T07:47:29.733Z,33.15
2023-05-06T07:49:56.654Z,31.58
2023-05-06T07:52:24.088Z,27.85
2023-05-06T07:54:50.762Z,27.77
2023-05-06T07:57:17.758Z,25.70
2023-05-06T07:59:48.143Z,25.05
2023-05-06T08:02:15.413Z,21.95
2023-05-06T08:04:42.977Z,22.80
2023-05-06T08:07:10.716Z,21.58
2023-05-06T08:09:37.574Z,21.90
2023-05-06T08:12:04.372Z,19.92
2023-05-06T08:14:31.059Z,19.00
2023-05-06T08:16:57.735Z,18.15
2023-05-06T08:19:24.428Z,19.08
2023-05-06T08:21:51.514Z,16.63
2023-05-06T08:24:18.285Z,17.50
2023-05-06T08:26:44.945Z,16.15
2023-05-06T08:29:11.653Z,16.38
2023-05-06T08:31:38.419Z,13.73
2023-05-06T08:34:05.197Z,12.52
2023-05-06T08:36:32.121Z,13.95
2023-05-06T08:38:58.797Z,13.98
2023-05-06T08:41:26.513Z,13.15
2023-05-06T08:43:55.596Z,12.57
2023-05-06T08:46:22.802Z,12.07
2023-05-06T08:48:49.518Z,11.65
2023-05-06T08:51:16.816Z,13.93
2023-05-06T08:53:48.391Z,11.20
2023-05-06T08:56:16.253Z,10.40
2023-05-06T08:58:46.510Z,10.20
2023-05-06T09:01:15.454Z,10.48
2023-05-06T09:03:42.230Z,11.00
2023-05-06T09:06:09.001Z,11.30
2023-05-06T09:08:36.245Z,10.60
2023-05-06T09:11:02.914Z,10.65
2023-05-06T09:13:30.192Z,10.48
2023-05-06T09:15:56.898Z,12.27
2023-05-06T09:18:23.751Z,8.70
2023-05-06T09:20:50.469Z,8.80
2023-05-06T09:23:18.347Z,10.30
2023-05-06T09:25:46.739Z,11.70
2023-05-06T09:28:14.576Z,9.75
2023-05-06T09:30:47.353Z,9.10
2023-05-06T09:33:14.385Z,9.48
2023-05-06T09:35:42.723Z,8.68
2023-05-06T09:38:10.506Z,8.80
2023-05-06T09:40:38.042Z,7.93
2023-05-06T09:43:05.614Z,8.75
2023-05-06T09:45:32.832Z,8.35
2023-05-06T09:48:00.267Z,8.40
2023-05-06T09:50:28.044Z,7.97
2023-05-06T09:52:56.524Z,7.72
2023-05-06T09:55:26.530Z,8.20
2023-05-06T09:57:53.394Z,8.18
2023-05-06T10:00:26.814Z,8.20
2023-05-06T10:02:55.088Z,7.35
2023-05-06T10:05:24.743Z,8.95
2023-05-06T10:07:53.432Z,7.50
2023-05-06T10:10:21.233Z,7.97
2023-05-06T10:12:49.987Z,7.97
2023-05-06T10:15:17.281Z,9.13
2023-05-06T10:17:48.115Z,8.13
2023-05-06T10:20:17.164Z,10.30
2023-05-06T10:22:53.201Z,8.38
2023-05-06T10:25:37.639Z,9.52
2023-05-06T10:28:08.190Z,10.02
2023-05-06T10:30:52.114Z,9.43
2023-05-06T10:33:22.626Z,9.43
2023-05-06T10:36:11.477Z,8.23
2023-05-06T10:38:42.407Z,10.05
2023-05-06T10:41:10.197Z,9.23
2023-05-06T10:43:41.917Z,8.02
2023-05-06T10:46:16.557Z,10.45
2023-05-06T10:49:04.814Z,9.88
2023-05-06T10:51:38.828Z,9.95
2023-05-06T10:54:18.432Z,9.07
2023-05-06T10:56:48.250Z,9.98
2023-05-06T10:59:15.669Z,9.27
2023-05-06T11:01:44.329Z,11.50
2023-05-06T11:04:12.931Z,9.45
2023-05-06T11:06:46.056Z,10.15
2023-05-06T11:09:20.592Z,9.75
2023-05-06T11:12:03.931Z,8.77
2023-05-06T11:14:35.351Z,10.80
2023-05-06T11:17:07.177Z,8.43
2023-05-06T11:19:38.444Z,8.82
2023-05-06T11:22:06.893Z,8.27
2023-05-06T11:24:41.671Z,8.25
2023-05-06T11:27:09.752Z,9.98
2023-05-06T11:29:37.064Z,9.77
2023-05-06T11:32:05.654Z,9.35
2023-05-06T11:34:32.890Z,11.45
2023-05-06T11:37:09.476Z,11.20
2023-05-06T11:39:40.516Z,11.73
2023-05-06T11:42:09.005Z,11.53
2023-05-06T11:44:37.912Z,10.60
2023-05-06T11:47:09.247Z,13.88
2023-05-06T11:49:44.725Z,14.35
2023-05-06T11:52:12.814Z,15.60
2023-05-06T11:54:41.017Z,19.48
2023-05-06T11:57:08.626Z,18.58
2023-05-06T11:59:40.018Z,15.90
2023-05-06T12:02:09.437Z,17.95
2023-05-06T12:04:44.075Z,17.15
2023-05-06T12:07:13.112Z,16.45
2023-05-06T12:09:43.273Z,15.48
2023-05-06T12:12:11.063Z,14.82
2023-05-06T12:14:38.354Z,14.23
2023-05-06T12:17:05.646Z,16.38
2023-05-06T12:19:33.301Z,15.02
2023-05-06T12:22:35.433Z,15.02
2023-05-06T12:25:14.350Z,18.35
2023-05-06T12:27:41.030Z,17.35
2023-05-06T12:30:09.362Z,21.05
2023-05-06T12:32:36.432Z,22.33
2023-05-06T12:35:07.300Z,20.60
2023-05-06T12:37:34.172Z,22.70
2023-05-06T12:40:01.337Z,24.13
2023-05-06T12:42:28.212Z,22.17
2023-05-06T12:44:56.322Z,21.48
2023-05-06T12:47:25.432Z,22.83
2023-05-06T12:49:58.953Z,21.80
2023-05-06T12:52:28.671Z,20.75
2023-05-06T12:54:55.892Z,19.23
2023-05-06T12:57:22.723Z,20.25
2023-05-06T12:59:50.533Z,20.45
2023-05-06T13:02:17.393Z,18.15
2023-05-06T13:04:45.255Z,15.35
2023-05-06T13:07:12.051Z,15.32
2023-05-06T13:09:38.712Z,13.90
2023-05-06T13:12:06.158Z,14.57
2023-05-06T13:14:32.862Z,14.10
2023-05-06T13:17:01.126Z,12.27
2023-05-06T13:19:32.855Z,13.65
2023-05-06T13:22:01.318Z,14.10
2023-05-06T13:24:28.649Z,13.23
2023-05-06T13:26:57.266Z,11.23
2023-05-06T13:29:24.453Z,11.25
2023-05-06T13:31:51.634Z,10.38
2023-05-06T13:34:18.892Z,12.05
2023-05-06T13:36:46.677Z,12.68
2023-05-06T13:39:13.383Z,11.38
2023-05-06T13:41:40.209Z,10.32
2023-05-06T13:44:06.864Z,11.07
2023-05-06T13:46:33.702Z,9.73
2023-05-06T13:49:00.491Z,9.70
2023-05-06T13:51:29.879Z,7.50
2023-05-06T13:53:56.662Z,6.65
2023-05-06T13:56:23.488Z,5.88
2023-05-06T13:58:50.437Z,5.03
2023-05-06T14:01:17.173Z,4.97
2023-05-06T14:03:43.897Z,4.50
2023-05-06T14:06:11.457Z,5.47
2023-05-06T14:08:38.205Z,5.65
2023-05-06T14:11:04.919Z,5.40
2023-05-06T14:13:32.646Z,4.50
2023-05-06T14:15:59.887Z,5.32
2023-05-06T14:18:27.592Z,5.03
2023-05-06T14:20:54.834Z,6.00
2023-05-06T14:23:21.570Z,6.30
2023-05-06T14:25:48.909Z,5.82
2023-05-06T14:28:15.980Z,6.03
2023-05-06T14:30:43.180Z,5.45
2023-05-06T14:33:10.421Z,5.10
2023-05-06T14:35:41.964Z,5.40
2023-05-06T14:38:09.462Z,5.53
2023-05-06T14:40:36.991Z,6.13
2023-05-06T14:43:04.041Z,6.05
2023-05-06T14:45:31.051Z,5.18
2023-05-06T14:47:57.967Z,5.00
2023-05-06T14:50:24.734Z,5.10
2023-05-06T14:52:51.362Z,4.43
2023-05-06T14:55:18.284Z,4.30
2023-05-06T14:57:44.927Z,4.47
2023-05-06T15:00:12.711Z,3.45
2023-05-06T15:02:40.785Z,3.55
2023-05-06T15:05:11.079Z,4.45
2023-05-06T15:07:38.110Z,3.70
2023-05-06T15:10:05.275Z,3.83
2023-05-06T15:12:31.979Z,3.53
2023-05-06T15:14:58.595Z,4.28
2023-05-06T15:17:25.520Z,4.25
2023-05-06T15:19:52.346Z,4.13
2023-05-06T15:22:19.066Z,3.95
2023-05-06T15:24:45.701Z,3.80
2023-05-06T15:27:12.372Z,3.70
2023-05-06T15:29:39.405Z,3.08
2023-05-06T15:32:06.275Z,2.42
2023-05-06T15:34:33.116Z,2.70
2023-05-06T15:37:02.007Z,2.63
2023-05-06T15:39:28.944Z,3.15
2023-05-06T15:41:58.460Z,3.40
2023-05-06T15:46:53.325Z,2.95
2023-05-06T15:49:48.931Z,3.83
2023-05-06T15:52:06.606Z,4.13
2023-05-06T15:54:34.796Z,4.55
2023-05-06T15:57:07.317Z,4.47
2023-05-06T15:59:34.245Z,4.20
2023-05-06T16:02:26.355Z,4.22
2023-05-06T16:04:47.918Z,4.63
2023-05-06T16:07:15.519Z,5.05
2023-05-06T16:09:42.922Z,5.00
2023-05-06T16:12:10.095Z,5.25
2023-05-06T16:14:36.953Z,4.93
2023-05-06T16:17:03.636Z,4.80
2023-05-06T16:19:32.002Z,5.18
2023-05-06T16:21:58.764Z,5.80
2023-05-06T16:24:25.420Z,5.70
2023-05-06T16:26:52.094Z,5.72
2023-05-06T16:29:20.617Z,6.18
2023-05-06T16:31:48.846Z,5.22
2023-05-06T16:34:15.677Z,5.75
2023-05-06T16:36:42.349Z,5.28
2023-05-06T16:39:09.046Z,5.13
2023-05-06T16:41:35.744Z,5.30
2023-05-06T16:44:02.501Z,5.55
2023-05-06T16:46:29.310Z,4.85
2023-05-06T16:48:56.124Z,4.07
2023-05-06T16:51:22.936Z,4.22
2023-05-06T16:53:49.567Z,4.00
2023-05-06T16:56:16.272Z,3.42
2023-05-06T16:58:43.023Z,3.60
2023-05-06T17:01:09.765Z,3.67
2023-05-06T17:03:40.366Z,3.42
2023-05-06T17:06:07.772Z,3.95
2023-05-06T17:08:36.776Z,3.33
2023-05-06T17:11:06.629Z,3.08
2023-05-06T17:13:33.956Z,3.63
2023-05-06T17:16:00.844Z,3.35
2023-05-06T17:18:27.728Z,3.22
2023-05-06T17:20:56.613Z,2.88
2023-05-06T17:23:23.846Z,3.25
2023-05-06T17:25:51.110Z,3.15
2023-05-06T17:28:18.819Z,3.05
2023-05-06T17:30:46.110Z,3.03
2023-05-06T17:33:12.969Z,3.22
2023-05-06T17:35:39.933Z,2.78
2023-05-06T17:38:06.635Z,3.25
2023-05-06T17:40:33.520Z,2.70
2023-05-06T17:43:00.637Z,2.70
2023-05-06T17:45:28.447Z,2.90
2023-05-06T17:47:56.149Z,2.78
2023-05-06T17:50:23.193Z,3.22
2023-05-06T17:52:50.778Z,3.13
2023-05-06T17:55:17.924Z,3.15
2023-05-06T17:57:44.646Z,3.00
2023-05-06T18:00:11.842Z,2.90
2023-05-06T18:02:38.896Z,2.90
2023-05-06T18:05:06.418Z,2.97
2023-05-06T18:07:34.404Z,2.63
2023-05-06T18:10:01.083Z,2.65
2023-05-06T18:12:28.448Z,3.40
2023-05-06T18:14:56.657Z,3.50
2023-05-06T18:17:23.534Z,4.13
2023-05-06T18:19:50.272Z,4.10
2023-05-06T18:22:16.951Z,3.95
2023-05-06T18:24:43.661Z,4.35
2023-05-06T18:27:10.356Z,5.20
2023-05-06T18:29:37.120Z,4.63
2023-05-06T18:32:04.229Z,5.70
2023-05-06T18:34:31.021Z,5.18
2023-05-06T18:36:57.932Z,5.20
2023-05-06T18:39:25.019Z,5.68
2023-05-06T18:41:51.671Z,6.03
2023-05-06T18:44:18.327Z,5.45
2023-05-06T18:46:45.065Z,5.85
2023-05-06T18:49:13.968Z,5.80
2023-05-06T18:51:40.854Z,6.15
2023-05-06T18:54:08.105Z,6.15
2023-05-06T18:56:35.487Z,5.60
2023-05-06T18:59:02.230Z,6.10
2023-05-06T19:01:29.168Z,7.60
2023-05-06T19:03:56.753Z,6.70
2023-05-06T19:06:23.516Z,7.70
2023-05-06T19:08:50.242Z,8.20
2023-05-06T19:11:18.878Z,8.90
2023-05-06T19:13:46.301Z,9.15
2023-05-06T19:16:13.931Z,9.25
2023-05-06T19:18:40.798Z,10.10
2023-05-06T19:21:12.472Z,11.18
2023-05-06T19:23:39.292Z,11.65
2023-05-06T19:26:06.949Z,11.32
2023-05-06T19:28:34.176Z,12.05
2023-05-06T19:31:01.464Z,11.35
2023-05-06T19:33:30.973Z,12.18
2023-05-06T19:35:57.668Z,12.93
2023-05-06T19:38:24.353Z,12.48
2023-05-06T19:40:51.062Z,11.63
2023-05-06T19:43:17.755Z,11.93
2023-05-06T19:45:44.425Z,12.70
2023-05-06T19:48:12.780Z,11.30
2023-05-06T19:50:39.518Z,12.65
2023-05-06T19:53:06.334Z,13.23
2023-05-06T19:55:32.996Z,12.05
2023-05-06T19:57:59.901Z,12.55
2023-05-06T20:00:30.345Z,12.40
2023-05-06T20:02:58.991Z,12.73
2023-05-06T20:05:32.156Z,12.85
2023-05-06T20:08:01.746Z,13.18
2023-05-06T20:10:29.011Z,12.55
2023-05-06T20:12:57.788Z,13.27
2023-05-06T20:15:25.113Z,12.10
2023-05-06T20:17:51.891Z,12.48
2023-05-06T20:20:18.962Z,12.75
2023-05-06T20:22:46.122Z,12.35
2023-05-06T20:25:17.439Z,12.55
2023-05-06T20:27:45.104Z,12.27
2023-05-06T20:30:12.434Z,11.32
2023-05-06T20:32:40.369Z,11.35
2023-05-06T20:35:08.211Z,10.07
2023-05-06T20:37:36.054Z,10.27
2023-05-06T20:40:04.763Z,10.30
2023-05-06T20:42:31.936Z,10.90
2023-05-06T20:44:59.457Z,10.13
2023-05-06T20:47:26.907Z,9.88
2023-05-06T20:49:53.965Z,10.05
2023-05-06T20:52:21.664Z,9.55
2023-05-06T20:54:48.882Z,9.73
2023-05-06T20:57:16.919Z,9.60
2023-05-06T20:59:43.743Z,9.98
2023-05-06T21:02:10.848Z,9.23
2023-05-06T21:04:37.627Z,9.85
2023-05-06T21:07:04.393Z,9.82
2023-05-06T21:09:31.136Z,9.43
2023-05-06T21:11:58.496Z,9.43
2023-05-06T21:14:26.151Z,10.07
2023-05-06T21:16:53.214Z,9.07
2023-05-06T21:19:21.074Z,8.70
2023-05-06T21:21:48.271Z,10.32
2023-05-06T21:24:15.174Z,9.38
2023-05-06T21:26:41.853Z,9.45
2023-05-06T21:29:08.730Z,8.55
2023-05-06T21:31:35.597Z,9.15
2023-05-06T21:34:03.458Z,9.00
2023-05-06T21:36:31.097Z,9.70
2023-05-06T21:39:08.723Z,8.27
2023-05-06T21:41:36.076Z,8.45
2023-05-06T21:44:07.371Z,8.82
2023-05-06T21:46:34.908Z,10.00
2023-05-06T21:49:01.730Z,8.68
2023-05-06T21:51:32.183Z,9.75
2023-05-06T21:53:59.219Z,9.95
2023-05-06T21:56:26.114Z,10.30
2023-05-06T21:58:54.579Z,10.68
2023-05-06T22:01:22.152Z,10.18
2023-05-06T22:03:49.102Z,9.73
2023-05-06T22:06:15.866Z,9.57
2023-05-06T22:08:42.800Z,10.50
2023-05-06T22:11:09.544Z,9.20
2023-05-06T22:13:36.400Z,9.55
2023-05-06T22:16:04.073Z,10.05
2023-05-06T22:18:32.053Z,9.48
2023-05-06T22:20:59.198Z,10.15
2023-05-06T22:23:27.677Z,10.23
2023-05-06T22:25:54.650Z,9.93
2023-05-06T22:28:21.643Z,10.15
2023-05-06T22:30:48.356Z,9.75
2023-05-06T22:33:15.063Z,9.52
2023-05-06T22:35:41.820Z,10.30
2023-05-06T22:38:08.842Z,10.02
2023-05-06T22:40:35.537Z,9.57
2023-05-06T22:43:02.211Z,9.85
2023-05-06T22:45:30.519Z,9.63
2023-05-06T22:47:57.383Z,9.30
2023-05-06T22:50:25.161Z,9.45
2023-05-06T22:52:52.168Z,10.02
2023-05-06T22:55:18.993Z,10.05
2023-05-06T22:57:47.111Z,9.52
2023-05-06T23:00:14.309Z,8.80
2023-05-06T23:02:41.126Z,9.25
2023-05-06T23:05:09.041Z,9.85
2023-05-06T23:07:36.349Z,9.27
2023-05-06T23:10:03.174Z,10.02
2023-05-06T23:12:35.925Z,9.65
2023-05-06T23:15:03.185Z,8.55
2023-05-06T23:17:30.094Z,8.57
2023-05-06T23:19:59.060Z,7.57
2023-05-06T23:22:26.665Z,8.35
2023-05-06T23:24:53.406Z,8.18
2023-05-06T23:27:20.088Z,8.20
2023-05-06T23:29:47.004Z,8.60
2023-05-06T23:32:13.699Z,9.02
2023-05-06T23:34:40.663Z,8.32
2023-05-06T23:37:07.665Z,8.98
2023-05-06T23:39:34.572Z,9.20
2023-05-06T23:42:01.919Z,8.90
2023-05-06T23:44:28.961Z,9.90
2023-05-06T23:46:55.892Z,9.63
2023-05-06T23:49:22.901Z,9.50
2023-05-06T23:51:51.729Z,10.90
2023-05-06T23:54:18.537Z,10.18
2023-05-06T23:56:45.496Z,10.38
2023-05-06T23:59:12.468Z,10.45
